Time;durP1;ratioP1;P1;durP2;ratioP2;P2;SDS_P1;SDS_P2;PMS_P1;PMS_P2;Temp;Humidity;BMP_temperature;BMP_pressure;BME280_temperature;BME280_humidity;BME280_pressure;Samples;Min_cycle;Max_cycle;Signal;HPM_P1;HPM_P2
2021/07/25 00:00:58;;;;;;;34.23;17.77;;;;;;;15.75;73.10;98731.92;2220948;80;20952;-58
2021/07/25 00:03:58;;;;;;;36.28;18.67;;;;;;;15.73;72.84;98721.94;2220780;80;20992;-59
2021/07/25 00:06:59;;;;;;;33.35;19.07;;;;;;;15.76;73.03;98708.48;2220712;80;21095;-59
2021/07/25 00:10:00;;;;;;;32.15;18.00;;;;;;;15.79;73.45;98708.25;2221052;80;21470;-58
2021/07/25 00:13:01;;;;;;;34.60;18.30;;;;;;;15.79;73.09;98707.39;2220828;80;21016;-58
2021/07/25 00:16:01;;;;;;;34.43;17.80;;;;;;;15.83;73.28;98713.64;2221106;80;20984;-59
2021/07/25 00:19:02;;;;;;;31.30;16.82;;;;;;;15.74;73.09;98711.72;2221062;80;21129;-59
2021/07/25 00:22:02;;;;;;;33.40;17.20;;;;;;;15.58;73.10;98716.14;2221010;80;20992;-59
2021/07/25 00:28:05;;;;;;;;;;;;;;;15.48;73.20;98708.62;2195713;80;20949;-59
2021/07/25 00:31:08;;;;;;;36.93;20.12;;;;;;;15.49;73.63;98703.21;2221023;80;20394;-59
2021/07/25 00:34:08;;;;;;;36.95;21.20;;;;;;;15.48;73.59;98700.20;2192946;80;21040;-59
2021/07/25 00:37:08;;;;;;;39.78;21.97;;;;;;;15.47;73.72;98693.23;2220937;80;21459;-59
2021/07/25 00:40:09;;;;;;;41.25;22.73;;;;;;;15.46;73.73;98690.26;2220937;80;20992;-59
2021/07/25 00:43:09;;;;;;;32.38;17.27;;;;;;;15.45;73.69;98691.71;2221207;80;20972;-59
2021/07/25 00:46:10;;;;;;;31.10;16.97;;;;;;;15.48;74.40;98691.45;2221124;80;20976;-59
2021/07/25 00:49:10;;;;;;;29.50;15.18;;;;;;;15.44;74.36;98690.85;2221083;80;20977;-59
2021/07/25 00:52:10;;;;;;;28.32;14.75;;;;;;;15.27;74.09;98698.02;2220955;80;20995;-59
2021/07/25 00:55:12;;;;;;;31.15;16.62;;;;;;;15.16;74.27;98697.59;2220900;80;21479;-59
2021/07/25 00:58:12;;;;;;;29.77;15.67;;;;;;;15.13;74.69;98691.22;2221565;80;21514;-62
2021/07/25 01:01:13;;;;;;;31.97;16.45;;;;;;;15.09;74.18;98690.65;2220944;80;21032;-58
2021/07/25 01:04:13;;;;;;;30.97;16.30;;;;;;;15.01;73.91;98684.69;2220563;80;21009;-59
2021/07/25 01:07:14;;;;;;;33.67;17.75;;;;;;;14.94;74.34;98687.93;2220260;80;20973;-59
2021/07/25 01:10:15;;;;;;;31.35;16.73;;;;;;;14.89;74.65;98690.95;2220265;80;21028;-58
2021/07/25 01:13:16;;;;;;;33.70;16.95;;;;;;;14.89;74.57;98688.31;2220605;80;20957;-59
2021/07/25 01:16:16;;;;;;;30.48;15.48;;;;;;;14.89;74.72;98677.75;2220463;80;21058;-58
2021/07/25 01:19:17;;;;;;;32.35;16.07;;;;;;;14.86;74.47;98684.11;2220483;80;21103;-59
2021/07/25 01:22:17;;;;;;;33.20;17.55;;;;;;;14.80;74.79;98690.39;2220739;80;20971;-59
2021/07/25 01:25:18;;;;;;;31.55;16.67;;;;;;;14.77;74.81;98693.25;2220837;80;20976;-59
2021/07/25 01:28:18;;;;;;;29.50;16.07;;;;;;;14.72;74.72;98699.77;2220645;80;20976;-59
2021/07/25 01:31:19;;;;;;;27.98;14.63;;;;;;;14.68;75.09;98685.13;2220641;80;20968;-59
2021/07/25 01:34:19;;;;;;;30.05;14.98;;;;;;;14.68;75.96;98687.77;2220635;80;21515;-58
2021/07/25 01:37:19;;;;;;;30.37;15.58;;;;;;;14.61;75.03;98692.29;2220581;80;21513;-63
2021/07/25 01:40:22;;;;;;;31.33;16.93;;;;;;;14.57;75.79;98695.67;2220988;80;20937;-60
2021/07/25 01:43:22;;;;;;;32.78;17.77;;;;;;;14.54;75.91;98691.47;2220828;80;21028;-59
2021/07/25 01:46:22;;;;;;;30.62;16.07;;;;;;;14.55;76.37;98692.30;2220780;80;21493;-61
2021/07/25 01:49:23;;;;;;;30.95;15.58;;;;;;;14.52;75.72;98685.48;2220679;80;21466;-58
2021/07/25 01:52:24;;;;;;;29.57;14.40;;;;;;;14.56;75.82;98675.02;2220921;80;20976;-58
2021/07/25 01:55:24;;;;;;;32.90;15.32;;;;;;;14.62;75.97;98670.25;2220900;80;21062;-61
2021/07/25 01:58:24;;;;;;;30.45;15.23;;;;;;;14.55;75.80;98673.36;2220912;80;20976;-59
2021/07/25 02:01:25;;;;;;;31.52;16.42;;;;;;;14.45;75.22;98671.11;2220804;80;20968;-59
2021/07/25 02:04:25;;;;;;;35.52;17.23;;;;;;;14.36;75.33;98666.54;2220442;80;21566;-63
2021/07/25 02:07:27;;;;;;;30.57;15.28;;;;;;;14.33;75.94;98663.66;2220695;80;21139;-60
2021/07/25 02:10:27;;;;;;;32.40;16.80;;;;;;;14.28;76.28;98672.44;2220699;80;20972;-59
2021/07/25 02:13:27;;;;;;;26.85;13.45;;;;;;;14.30;76.17;98677.59;2220905;80;20968;-58
2021/07/25 02:16:28;;;;;;;29.20;14.33;;;;;;;14.19;75.84;98676.64;2220885;80;20984;-59
2021/07/25 02:19:28;;;;;;;33.53;14.73;;;;;;;14.16;76.18;98673.39;2220753;80;20967;-58
2021/07/25 02:22:29;;;;;;;28.10;13.95;;;;;;;14.16;76.41;98669.42;2220876;80;21072;-58
2021/07/25 02:25:30;;;;;;;30.75;14.65;;;;;;;14.21;77.01;98664.64;2220426;80;20999;-58
2021/07/25 02:28:30;;;;;;;25.77;12.47;;;;;;;14.28;77.02;98676.39;2221032;80;20984;-59
2021/07/25 02:31:31;;;;;;;23.07;10.68;;;;;;;14.29;76.37;98675.41;2220776;80;20980;-58
2021/07/25 02:34:31;;;;;;;28.00;13.50;;;;;;;14.23;76.33;98673.27;2220896;80;20944;-59
2021/07/25 02:37:32;;;;;;;26.75;13.53;;;;;;;14.27;77.31;98676.02;2220598;80;20979;-59
2021/07/25 02:40:32;;;;;;;30.82;13.95;;;;;;;14.43;77.82;98675.65;2220735;80;21569;-58
2021/07/25 02:43:33;;;;;;;26.97;13.32;;;;;;;14.50;78.01;98670.73;2220759;80;21023;-59
2021/07/25 02:46:33;;;;;;;26.77;13.35;;;;;;;14.55;77.40;98673.83;2220783;80;21003;-58
2021/07/25 02:49:34;;;;;;;24.07;11.97;;;;;;;14.56;76.81;98682.94;2220727;80;20960;-58
2021/07/25 02:52:34;;;;;;;31.05;14.50;;;;;;;14.55;76.89;98685.70;2220648;80;21003;-59
2021/07/25 02:55:35;;;;;;;28.15;14.15;;;;;;;14.61;77.33;98681.73;2220666;80;20996;-58
2021/07/25 02:58:35;;;;;;;29.15;14.15;;;;;;;14.64;77.84;98678.88;2220700;80;21474;-58
2021/07/25 03:01:36;;;;;;;28.25;13.22;;;;;;;14.62;78.08;98678.17;2220711;80;20972;-59
2021/07/25 03:04:36;;;;;;;28.92;13.40;;;;;;;14.48;77.65;98676.13;2211847;80;21060;-58
2021/07/25 03:07:37;;;;;;;31.30;14.83;;;;;;;14.47;78.01;98673.13;2209962;81;21096;-58
2021/07/25 03:10:38;;;;;;;29.87;13.70;;;;;;;14.54;78.49;98675.64;2210416;81;21041;-58
2021/07/25 03:13:38;;;;;;;31.62;15.43;;;;;;;14.68;78.96;98671.93;2210706;81;21016;-58
2021/07/25 03:16:39;;;;;;;30.90;15.48;;;;;;;14.85;78.65;98669.72;2210405;81;21005;-59
2021/07/25 03:19:39;;;;;;;30.20;15.83;;;;;;;15.04;78.48;98675.65;2210392;81;20985;-59
2021/07/25 03:22:40;;;;;;;28.40;14.83;;;;;;;15.22;78.32;98674.14;2210315;81;21004;-59
2021/07/25 03:25:40;;;;;;;30.45;15.75;;;;;;;15.34;78.12;98674.95;2210424;81;21510;-58
2021/07/25 03:28:41;;;;;;;30.80;14.25;;;;;;;15.45;77.93;98674.03;2210455;81;21506;-58
2021/07/25 03:31:41;;;;;;;31.42;15.20;;;;;;;15.54;77.76;98669.31;2210821;81;21028;-58
2021/07/25 03:34:41;;;;;;;33.18;16.25;;;;;;;15.75;78.12;98675.90;2210579;81;20993;-59
2021/07/25 03:37:45;;;;;;;31.37;15.88;;;;;;;15.93;78.34;98672.67;2210528;81;21044;-61
2021/07/25 03:40:44;;;;;;;;;;;;;;;16.10;78.17;98669.91;2191877;81;20965;-59
2021/07/25 03:43:45;;;;;;;30.70;15.85;;;;;;;16.26;78.10;98669.41;2210432;80;20120;-58
2021/07/25 03:46:45;;;;;;;29.05;14.55;;;;;;;16.25;78.43;98654.03;2210279;81;21499;-58
2021/07/25 03:49:46;;;;;;;28.57;14.53;;;;;;;16.42;77.98;98665.80;2210414;80;21455;-58
2021/07/25 03:52:47;;;;;;;27.13;14.15;;;;;;;16.53;77.71;98666.16;2210184;81;21016;-58
2021/07/25 03:55:47;;;;;;;27.25;13.72;;;;;;;16.67;77.68;98668.91;2210463;81;20973;-58
2021/07/25 03:58:47;;;;;;;26.77;14.18;;;;;;;16.80;77.58;98666.84;2210373;81;21053;-58
2021/07/25 04:01:48;;;;;;;31.17;15.60;;;;;;;16.92;77.31;98664.10;2210530;80;21002;-59
2021/07/25 04:04:48;;;;;;;27.67;14.60;;;;;;;17.05;77.26;98668.66;2218750;80;20997;-60
2021/07/25 04:07:49;;;;;;;30.92;14.65;;;;;;;17.12;77.08;98665.80;2220294;80;21542;-58
2021/07/25 04:10:49;;;;;;;28.15;14.33;;;;;;;17.22;76.95;98667.11;2220542;80;21523;-58
2021/07/25 04:13:49;;;;;;;31.02;13.80;;;;;;;17.26;76.86;98663.70;2220466;80;21064;-58
2021/07/25 04:16:50;;;;;;;29.92;13.45;;;;;;;17.27;76.77;98664.06;2220688;80;20949;-59
2021/07/25 04:19:51;;;;;;;30.72;15.50;;;;;;;17.31;76.72;98660.98;2220639;80;20960;-59
2021/07/25 04:22:51;;;;;;;29.98;14.75;;;;;;;17.37;76.69;98662.23;2220783;80;20937;-59
2021/07/25 04:25:51;;;;;;;30.30;15.30;;;;;;;17.39;76.65;98674.02;2220619;80;20945;-58
2021/07/25 04:28:52;;;;;;;28.73;13.70;;;;;;;17.45;76.62;98682.23;2220545;80;21525;-59
2021/07/25 04:31:52;;;;;;;30.05;13.95;;;;;;;17.54;76.48;98681.89;2220534;80;21060;-58
2021/07/25 04:34:53;;;;;;;28.45;13.70;;;;;;;17.68;76.38;98683.75;2220733;80;20953;-58
2021/07/25 04:37:54;;;;;;;29.30;14.07;;;;;;;17.93;76.17;98686.29;2220656;80;20941;-59
2021/07/25 04:40:55;;;;;;;28.38;14.75;;;;;;;18.24;75.94;98693.52;2220549;80;21088;-59
2021/07/25 04:43:56;;;;;;;28.95;14.45;;;;;;;18.53;75.48;98696.54;2220509;80;21494;-59
2021/07/25 04:46:56;;;;;;;28.65;15.10;;;;;;;18.87;74.97;98699.45;2220767;80;20973;-59
2021/07/25 04:49:57;;;;;;;28.57;14.40;;;;;;;19.11;74.51;98698.05;2220776;80;20989;-62
2021/07/25 04:52:58;;;;;;;29.42;14.03;;;;;;;19.34;74.08;98695.76;2220567;80;21032;-60
2021/07/25 04:55:59;;;;;;;26.25;12.85;;;;;;;19.63;74.06;98705.30;2220475;80;21007;-59
2021/07/25 04:59:00;;;;;;;26.97;13.15;;;;;;;19.94;73.10;98705.37;2220568;80;21591;-59
2021/07/25 05:05:03;;;;;;;26.30;13.18;;;;;;;20.54;71.94;98707.19;2166932;82;21055;-60
2021/07/25 05:08:04;;;;;;;25.82;13.48;;;;;;;20.76;71.33;98709.31;2182275;82;21028;-59
2021/07/25 05:11:04;;;;;;;26.35;14.00;;;;;;;20.96;71.15;98705.05;2182432;82;20988;-59
2021/07/25 05:14:05;;;;;;;25.77;14.15;;;;;;;21.22;70.83;98702.72;2182174;82;21021;-59
2021/07/25 05:17:05;;;;;;;26.87;13.65;;;;;;;21.43;70.70;98708.92;2182211;82;20942;-59
2021/07/25 05:20:06;;;;;;;27.07;12.95;;;;;;;21.70;70.23;98705.63;2182140;82;21024;-59
2021/07/25 05:23:06;;;;;;;24.05;12.63;;;;;;;21.96;69.57;98706.23;2182249;82;21500;-59
2021/07/25 05:26:06;;;;;;;28.10;13.03;;;;;;;22.25;69.16;98710.17;2182078;82;20938;-59
2021/07/25 05:29:07;;;;;;;25.60;12.65;;;;;;;22.51;68.32;98705.11;2182632;82;20945;-60
2021/07/25 05:32:07;;;;;;;26.27;13.50;;;;;;;22.74;67.75;98706.53;2182804;81;20949;-59
2021/07/25 05:35:08;;;;;;;28.62;13.55;;;;;;;22.99;67.16;98702.38;2182353;82;21010;-59
2021/07/25 05:38:08;;;;;;;25.57;12.82;;;;;;;23.21;67.17;98703.95;2182499;82;21057;-59
2021/07/25 05:41:08;;;;;;;27.33;13.07;;;;;;;23.51;66.62;98696.85;2182337;82;21516;-59
2021/07/25 05:44:09;;;;;;;25.57;13.50;;;;;;;23.78;65.70;98698.13;2182474;82;21547;-60
2021/07/25 05:47:10;;;;;;;24.77;13.00;;;;;;;23.93;64.31;98690.13;2182475;82;21003;-59
2021/07/25 05:50:10;;;;;;;26.27;13.63;;;;;;;24.13;64.52;98687.74;2182600;82;20961;-59
2021/07/25 05:53:11;;;;;;;26.02;13.05;;;;;;;24.36;63.89;98690.32;2182461;82;21012;-60
2021/07/25 05:56:12;;;;;;;25.67;13.10;;;;;;;24.66;63.14;98696.20;2182035;81;21560;-59
2021/07/25 05:59:12;;;;;;;25.80;12.83;;;;;;;24.60;62.45;98685.72;2182329;82;21586;-61
2021/07/25 06:02:13;;;;;;;28.17;14.07;;;;;;;24.56;62.67;98689.23;2182245;82;21067;-59
2021/07/25 06:05:13;;;;;;;28.07;14.23;;;;;;;24.51;62.65;98689.48;2213064;80;21013;-59
2021/07/25 06:08:14;;;;;;;24.77;12.83;;;;;;;24.67;62.96;98693.86;2221297;80;21013;-59
2021/07/25 06:11:14;;;;;;;26.77;13.53;;;;;;;24.66;61.17;98698.37;2221492;80;20933;-59
2021/07/25 06:14:15;;;;;;;25.70;13.27;;;;;;;24.67;62.43;98689.84;2221393;80;20925;-59
2021/07/25 06:17:15;;;;;;;27.63;13.23;;;;;;;24.79;62.18;98695.53;2221340;80;21424;-59
2021/07/25 06:20:15;;;;;;;24.57;12.73;;;;;;;24.93;61.65;98687.96;2221340;80;21443;-60
2021/07/25 06:23:16;;;;;;;28.90;12.93;;;;;;;25.25;61.65;98691.17;2221629;80;20964;-60
2021/07/25 06:26:16;;;;;;;25.47;12.70;;;;;;;25.58;60.46;98675.37;2221373;80;20972;-59
2021/07/25 06:29:17;;;;;;;27.27;13.53;;;;;;;25.86;60.25;98685.31;2221208;80;20992;-60
2021/07/25 06:32:17;;;;;;;24.20;12.20;;;;;;;26.01;59.41;98682.55;2221478;80;20937;-60
2021/07/25 06:35:18;;;;;;;26.10;12.53;;;;;;;26.22;58.50;98678.11;2221198;80;21023;-58
2021/07/25 06:38:18;;;;;;;28.23;11.20;;;;;;;26.47;58.25;98679.80;2221345;80;20973;-57
2021/07/25 06:41:19;;;;;;;23.63;10.80;;;;;;;26.73;56.90;98687.69;2221025;80;21570;-57
2021/07/25 06:44:19;;;;;;;23.07;10.50;;;;;;;26.94;55.46;98680.82;2221135;80;20985;-57
2021/07/25 06:47:20;;;;;;;22.57;10.93;;;;;;;27.12;55.90;98677.56;2221196;80;20976;-58
2021/07/25 06:50:20;;;;;;;25.00;10.77;;;;;;;27.36;55.54;98679.90;2221609;80;20975;-58
2021/07/25 06:53:21;;;;;;;26.10;11.87;;;;;;;27.59;54.20;98676.27;2221595;80;21012;-58
2021/07/25 06:56:21;;;;;;;25.77;11.40;;;;;;;27.69;51.87;98682.59;2220966;80;21059;-58
2021/07/25 06:59:22;;;;;;;25.67;10.40;;;;;;;27.74;53.20;98679.27;2221183;80;21360;-57
2021/07/25 07:02:23;;;;;;;28.65;12.00;;;;;;;27.91;52.88;98674.27;2221179;80;21060;-58
2021/07/25 07:05:23;;;;;;;23.00;10.53;;;;;;;28.17;52.46;98672.91;2212803;80;21001;-59
2021/07/25 07:08:24;;;;;;;23.10;10.23;;;;;;;28.38;52.38;98668.28;2210688;81;20981;-58
2021/07/25 07:11:24;;;;;;;21.53;9.80;;;;;;;28.70;51.76;98671.07;2210700;81;20965;-58
2021/07/25 07:14:25;;;;;;;27.27;10.73;;;;;;;29.02;50.24;98673.80;2210337;81;21056;-58
2021/07/25 07:17:25;;;;;;;23.57;9.63;;;;;;;29.26;49.98;98676.27;2210797;81;20937;-58
2021/07/25 07:20:26;;;;;;;21.40;9.40;;;;;;;29.72;49.37;98675.09;2210457;81;20981;-58
2021/07/25 07:23:27;;;;;;;31.53;13.77;;;;;;;30.05;48.61;98665.02;2210658;81;21033;-58
2021/07/25 07:26:27;;;;;;;23.03;10.20;;;;;;;30.18;47.07;98666.75;2210638;81;21703;-59
2021/07/25 07:29:27;;;;;;;21.40;9.83;;;;;;;29.95;47.71;98666.87;2210545;81;20976;-58
2021/07/25 07:32:28;;;;;;;22.93;10.57;;;;;;;29.82;47.81;98669.69;2210777;81;20965;-58
2021/07/25 07:35:28;;;;;;;23.43;9.67;;;;;;;29.83;47.82;98677.61;2210849;81;21004;-58
2021/07/25 07:38:29;;;;;;;23.07;9.97;;;;;;;29.85;47.22;98670.62;2210852;81;21040;-58
2021/07/25 07:41:32;;;;;;;21.37;9.43;;;;;;;29.81;46.75;98671.58;2210651;81;21004;-58
2021/07/25 07:44:32;;;;;;;22.45;9.50;;;;;;;29.81;47.26;98676.14;2210342;81;21448;-58
2021/07/25 07:47:33;;;;;;;23.10;9.80;;;;;;;29.77;46.92;98677.63;2210452;81;21025;-58
2021/07/25 07:50:34;;;;;;;22.20;9.97;;;;;;;29.79;46.93;98673.66;2210785;81;20973;-58
2021/07/25 07:53:34;;;;;;;22.23;10.17;;;;;;;30.00;46.66;98677.86;2210746;81;20977;-58
2021/07/25 07:56:35;;;;;;;25.40;9.10;;;;;;;30.21;45.64;98675.26;2210224;81;21059;-58
2021/07/25 07:59:36;;;;;;;20.90;9.13;;;;;;;30.35;44.84;98674.56;2210466;81;21580;-58
2021/07/25 08:02:36;;;;;;;21.60;9.00;;;;;;;30.57;42.64;98672.77;2210489;81;21452;-58
2021/07/25 08:05:37;;;;;;;21.27;8.87;;;;;;;30.53;43.54;98670.21;2210305;81;20988;-58
2021/07/25 08:08:37;;;;;;;21.37;9.20;;;;;;;30.61;44.08;98665.85;2210730;81;20938;-59
2021/07/25 08:11:43;;;;;;;22.30;10.10;;;;;;;30.80;42.29;98663.92;2210731;81;21009;-58
2021/07/25 08:14:40;;;;;;;21.70;8.90;;;;;;;30.72;41.02;98666.98;2189059;81;21547;-58
2021/07/25 08:17:43;;;;;;;23.40;9.00;;;;;;;30.75;43.67;98665.98;2210734;81;20993;-58
2021/07/25 08:20:44;;;;;;;21.80;9.23;;;;;;;30.94;42.85;98674.05;2210793;81;21530;-61
2021/07/25 08:23:44;;;;;;;20.60;8.80;;;;;;;31.31;40.59;98667.19;2210810;81;21065;-58
2021/07/25 08:26:45;;;;;;;20.73;8.93;;;;;;;31.44;41.39;98669.67;2210830;81;21000;-59
2021/07/25 08:29:45;;;;;;;21.57;8.87;;;;;;;31.66;40.88;98672.39;2210846;81;20981;-59
2021/07/25 08:32:45;;;;;;;20.07;8.70;;;;;;;31.89;40.69;98673.73;2210726;81;20962;-58
2021/07/25 08:35:46;;;;;;;22.57;8.70;;;;;;;32.04;39.10;98667.84;2210561;81;21488;-60
2021/07/25 08:38:46;;;;;;;20.37;8.77;;;;;;;32.11;39.93;98669.90;2210585;81;20997;-58
2021/07/25 08:41:47;;;;;;;18.73;8.13;;;;;;;32.30;39.63;98665.17;2210320;81;21142;-59
2021/07/25 08:44:48;;;;;;;21.87;8.70;;;;;;;32.52;38.70;98656.92;2210653;81;20981;-58
2021/07/25 08:47:48;;;;;;;20.65;8.18;;;;;;;32.72;38.93;98658.70;2210736;81;21290;-58
2021/07/25 08:50:49;;;;;;;21.20;8.53;;;;;;;32.93;38.09;98664.50;2210572;81;20934;-59
2021/07/25 08:53:50;;;;;;;22.80;8.80;;;;;;;33.11;37.32;98660.22;2210250;81;21056;-58
2021/07/25 08:56:51;;;;;;;;;;;;;;;33.17;37.65;98669.28;2212980;81;20933;-59
2021/07/25 08:59:51;;;;;;;20.80;8.73;;;;;;;32.87;37.22;98669.05;2210600;80;20096;-58
2021/07/25 09:02:52;;;;;;;19.00;8.00;;;;;;;33.08;37.30;98669.41;2209950;81;21653;-59
2021/07/25 09:05:53;;;;;;;21.20;8.10;;;;;;;33.41;37.83;98663.74;2210394;80;21077;-62
2021/07/25 09:08:53;;;;;;;20.32;8.13;;;;;;;33.47;36.07;98661.39;2210458;81;21056;-59
2021/07/25 09:11:54;;;;;;;20.43;7.97;;;;;;;33.48;35.71;98663.86;2210440;81;21009;-59
2021/07/25 09:14:54;;;;;;;19.55;8.28;;;;;;;33.42;35.04;98659.41;2209959;81;21013;-59
2021/07/25 09:17:55;;;;;;;19.60;7.80;;;;;;;33.50;35.29;98664.97;2210446;81;20976;-59
2021/07/25 09:20:56;;;;;;;19.50;7.75;;;;;;;33.28;32.55;98666.25;2210382;81;21064;-58
2021/07/25 09:23:57;;;;;;;18.95;8.10;;;;;;;33.01;35.21;98672.27;2210539;81;21009;-58
2021/07/25 09:26:57;;;;;;;19.80;8.23;;;;;;;33.24;34.82;98658.30;2210574;81;21012;-59
2021/07/25 09:29:58;;;;;;;19.87;8.13;;;;;;;33.53;33.13;98660.94;2210475;81;21001;-59
2021/07/25 09:32:58;;;;;;;;;;;;;;;33.60;32.84;98662.41;2213022;81;20953;-59
2021/07/25 09:35:58;;;;;;;19.10;8.20;;;;;;;33.81;32.76;98660.86;2210409;80;20438;-59
2021/07/25 09:38:59;;;;;;;;;;;;;;;34.04;33.26;98656.83;2212827;81;20985;-59
2021/07/25 09:42:01;;;;;;;19.40;7.97;;;;;;;34.28;30.90;98651.98;2188808;81;20093;-59
2021/07/25 09:45:02;;;;;;;;;;;;;;;34.35;31.57;98660.26;2212707;81;21083;-58
2021/07/25 09:48:03;;;;;;;18.47;7.23;;;;;;;34.63;32.16;98652.95;2210607;80;20124;-59
2021/07/25 09:51:04;;;;;;;;;;;;;;;34.93;30.26;98654.38;2212772;81;21500;-59
2021/07/25 09:54:06;;;;;;;18.67;7.55;;;;;;;35.02;30.95;98652.83;2210095;81;20427;-59
2021/07/25 09:57:07;;;;;;;18.35;7.37;;;;;;;34.97;31.28;98649.23;2210268;81;20981;-59
2021/07/25 10:00:08;;;;;;;;;;;;;;;34.44;30.13;98654.34;2213049;81;20988;-59
2021/07/25 10:03:09;;;;;;;20.32;7.87;;;;;;;33.67;30.46;98655.45;2210435;81;20109;-59
2021/07/25 10:06:09;;;;;;;;;;;;;;;33.13;31.07;98657.25;2212826;80;21491;-59
2021/07/25 10:09:10;;;;;;;24.00;7.97;;;;;;;32.81;31.01;98649.63;2210797;80;20101;-59
2021/07/25 10:12:10;;;;;;;19.20;7.67;;;;;;;32.55;31.10;98653.17;2210778;81;20977;-59
2021/07/25 10:15:11;;;;;;;17.80;7.20;;;;;;;32.28;31.02;98653.74;2210788;81;21013;-59
2021/07/25 10:18:11;;;;;;;19.48;7.78;;;;;;;32.08;30.64;98655.46;2210610;81;21060;-59
2021/07/25 10:21:12;;;;;;;19.52;7.55;;;;;;;32.02;31.23;98646.08;2210620;81;21515;-59
2021/07/25 10:24:13;;;;;;;19.50;7.83;;;;;;;31.98;31.77;98640.84;2210434;81;21024;-59
2021/07/25 10:27:13;;;;;;;19.07;7.60;;;;;;;31.87;32.24;98650.65;2210472;81;21069;-58
2021/07/25 10:30:14;;;;;;;18.60;7.50;;;;;;;31.77;32.35;98652.05;2210667;81;21012;-60
2021/07/25 10:33:14;;;;;;;21.97;7.50;;;;;;;31.55;32.05;98646.38;2210846;81;21318;-61
2021/07/25 10:36:14;;;;;;;21.63;8.50;;;;;;;31.33;32.38;98641.22;2210810;81;21569;-66
2021/07/25 10:39:15;;;;;;;18.97;7.53;;;;;;;31.08;33.07;98647.65;2210663;81;21082;-59
2021/07/25 10:42:15;;;;;;;21.00;7.90;;;;;;;30.81;33.24;98655.30;2210839;81;21000;-58
2021/07/25 10:45:16;;;;;;;21.65;8.50;;;;;;;30.62;33.69;98653.17;2210312;81;20981;-58
2021/07/25 10:48:17;;;;;;;21.27;7.83;;;;;;;30.48;34.52;98653.85;2210942;81;20961;-59
2021/07/25 10:51:19;;;;;;;20.67;8.00;;;;;;;30.29;34.38;98653.02;2210851;81;21025;-59
2021/07/25 10:54:19;;;;;;;20.37;7.83;;;;;;;29.98;34.60;98648.04;2188927;81;20977;-58
2021/07/25 10:57:20;;;;;;;21.00;8.50;;;;;;;29.79;34.75;98655.28;2210599;81;21128;-59
2021/07/25 11:00:20;;;;;;;22.60;9.30;;;;;;;29.58;34.91;98647.05;2210710;81;21024;-58
2021/07/25 11:03:20;;;;;;;23.17;8.67;;;;;;;29.35;35.40;98647.13;2210962;81;20970;-59
2021/07/25 11:06:22;;;;;;;19.23;8.10;;;;;;;29.14;35.65;98652.36;2210795;80;20969;-58
2021/07/25 11:09:23;;;;;;;18.75;7.50;;;;;;;28.98;36.22;98658.58;2210427;81;20977;-59
2021/07/25 11:12:23;;;;;;;21.07;8.67;;;;;;;28.84;36.61;98652.95;2210663;81;20996;-58
2021/07/25 11:15:24;;;;;;;20.17;8.27;;;;;;;28.69;37.06;98653.22;2210457;81;21044;-59
2021/07/25 11:18:24;;;;;;;21.77;8.47;;;;;;;28.59;37.37;98654.17;2210996;81;21029;-59
2021/07/25 11:21:24;;;;;;;20.60;8.27;;;;;;;28.49;38.04;98652.78;2210817;81;21037;-59
2021/07/25 11:24:26;;;;;;;22.13;9.13;;;;;;;28.40;38.42;98655.92;2210741;81;20977;-58
2021/07/25 11:27:27;;;;;;;21.37;9.03;;;;;;;28.31;38.86;98652.11;2210239;81;21039;-58
2021/07/25 11:30:27;;;;;;;24.33;10.97;;;;;;;28.28;38.75;98646.33;2210782;81;20964;-58
2021/07/25 11:33:28;;;;;;;25.00;10.77;;;;;;;28.24;39.31;98649.14;2210940;81;21029;-59
2021/07/25 11:36:28;;;;;;;24.70;11.17;;;;;;;28.22;39.24;98648.54;2210767;81;20918;-58
2021/07/25 11:39:28;;;;;;;23.47;9.47;;;;;;;28.22;40.31;98644.50;2210664;81;20973;-58
2021/07/25 11:42:29;;;;;;;24.10;9.00;;;;;;;28.19;40.14;98649.78;2210341;81;20988;-58
2021/07/25 11:45:29;;;;;;;21.67;8.97;;;;;;;28.18;39.91;98648.94;2210626;81;20981;-58
2021/07/25 11:48:30;;;;;;;21.50;9.38;;;;;;;28.18;40.12;98646.24;2210218;81;21523;-59
2021/07/25 11:51:31;;;;;;;23.53;9.63;;;;;;;28.20;40.11;98645.20;2210500;81;21523;-59
2021/07/25 11:54:32;;;;;;;26.62;10.13;;;;;;;28.19;40.57;98645.74;2210481;81;21001;-59
2021/07/25 11:57:33;;;;;;;26.27;9.10;;;;;;;28.20;40.74;98639.28;2210917;81;20993;-59
2021/07/25 12:00:34;;;;;;;20.80;8.33;;;;;;;28.24;40.56;98641.87;2210320;81;21028;-58
2021/07/25 12:03:34;;;;;;;22.67;10.83;;;;;;;28.24;40.82;98639.17;2210885;81;20977;-59
2021/07/25 12:06:35;;;;;;;20.93;9.00;;;;;;;28.28;40.98;98636.89;2217492;80;20996;-59
2021/07/25 12:09:36;;;;;;;19.70;8.30;;;;;;;28.27;42.98;98629.30;2220984;80;20993;-59
2021/07/25 12:12:37;;;;;;;20.20;8.00;;;;;;;28.29;41.89;98634.52;2220768;80;20958;-58
2021/07/25 12:15:38;;;;;;;21.48;8.40;;;;;;;28.37;42.07;98628.86;2220568;80;21503;-58
2021/07/25 12:18:39;;;;;;;20.45;8.70;;;;;;;28.45;41.65;98623.77;2220651;80;21463;-58
2021/07/25 12:21:39;;;;;;;27.90;10.90;;;;;;;28.58;42.36;98622.88;2220837;80;21063;-59
2021/07/25 12:24:40;;;;;;;23.60;9.80;;;;;;;28.71;41.53;98623.35;2220999;80;20968;-59
2021/07/25 12:27:40;;;;;;;22.37;7.90;;;;;;;28.89;41.63;98625.30;2220786;80;21008;-58
2021/07/25 12:30:40;;;;;;;21.20;8.00;;;;;;;29.13;41.96;98612.36;2220908;80;20999;-58
2021/07/25 12:33:41;;;;;;;19.70;7.57;;;;;;;29.36;41.84;98608.27;2220908;80;21525;-59
2021/07/25 12:36:41;;;;;;;21.00;7.10;;;;;;;29.62;40.91;98613.13;2220854;80;20972;-59
2021/07/25 12:39:42;;;;;;;21.73;8.13;;;;;;;29.91;40.96;98613.49;2221011;80;21367;-59
2021/07/25 12:42:42;;;;;;;21.23;8.30;;;;;;;29.96;38.97;98610.42;2221007;80;21007;-58
2021/07/25 12:45:43;;;;;;;18.37;7.67;;;;;;;30.02;40.96;98613.56;2220888;80;21038;-59
2021/07/25 12:48:43;;;;;;;18.87;6.87;;;;;;;30.10;40.05;98611.11;2220260;80;21040;-59
2021/07/25 12:51:44;;;;;;;24.53;9.23;;;;;;;30.03;37.11;98617.11;2220869;80;20976;-59
2021/07/25 12:54:44;;;;;;;21.57;9.40;;;;;;;29.21;37.46;98624.25;2220842;80;21478;-58
2021/07/25 12:57:45;;;;;;;21.13;9.67;;;;;;;28.52;40.35;98632.12;2220743;80;21064;-58
2021/07/25 13:00:50;;;;;;;23.13;9.73;;;;;;;28.20;41.25;98631.73;2220979;80;21019;-58
2021/07/25 13:03:48;;;;;;;23.02;10.20;;;;;;;28.04;42.92;98629.80;2190503;80;21483;-58
2021/07/25 13:06:49;;;;;;;;;;;;;;;28.04;41.74;98633.02;2216038;80;21009;-58
2021/07/25 13:09:49;;;;;;;25.40;11.60;;;;;;;27.90;42.76;98631.69;2210649;80;20088;-58
2021/07/25 13:12:50;;;;;;;26.07;10.67;;;;;;;27.64;43.39;98637.92;2210622;81;21512;-58
2021/07/25 13:15:50;;;;;;;23.70;10.33;;;;;;;27.45;42.83;98636.91;2210318;81;21042;-58
2021/07/25 13:18:50;;;;;;;22.17;10.60;;;;;;;27.48;43.24;98632.45;2210734;81;21003;-60
2021/07/25 13:21:52;;;;;;;23.57;10.57;;;;;;;27.42;43.29;98646.75;2210617;80;21014;-58
2021/07/25 13:24:54;;;;;;;;;;;;;;;27.37;43.38;98655.95;2212634;81;21036;-59
2021/07/25 13:27:54;;;;;;;26.05;11.18;;;;;;;27.33;44.12;98664.95;2210440;81;20132;-59
2021/07/25 13:30:55;;;;;;;39.63;12.70;;;;;;;27.21;44.24;98690.31;2210736;81;21021;-59
2021/07/25 13:33:56;;;;;;;28.53;11.57;;;;;;;26.84;44.37;98694.33;2210850;81;21021;-58
2021/07/25 13:36:56;;;;;;;26.60;12.17;;;;;;;26.49;44.77;98698.42;2210688;81;20973;-59
2021/07/25 13:39:56;;;;;;;25.43;11.23;;;;;;;26.16;45.78;98699.06;2211019;81;20989;-59
2021/07/25 13:42:57;;;;;;;28.20;13.03;;;;;;;25.82;46.86;98706.06;2210725;81;21024;-58
2021/07/25 13:45:59;;;;;;;27.00;11.83;;;;;;;25.61;47.05;98700.20;2210694;81;21032;-59
2021/07/25 13:49:00;;;;;;;26.82;11.63;;;;;;;25.40;48.51;98711.25;2210080;81;21017;-58
2021/07/25 13:52:01;;;;;;;24.33;11.60;;;;;;;25.14;49.07;98706.43;2211041;80;20957;-61
2021/07/25 13:55:01;;;;;;;24.27;12.10;;;;;;;25.01;49.90;98709.31;2210626;81;20961;-59
2021/07/25 13:58:01;;;;;;;23.97;11.93;;;;;;;24.88;50.11;98721.20;2210776;80;21009;-58
2021/07/25 14:01:02;;;;;;;23.97;11.97;;;;;;;24.77;50.08;98732.42;2210655;81;21558;-58
2021/07/25 14:04:03;;;;;;;24.77;11.87;;;;;;;24.63;49.91;98738.14;2210235;81;21551;-61